createdAt,value
2018-10-19T17:25:48.427Z,60.10
2018-10-19T17:28:16.986Z,66.57
2018-10-19T17:30:46.036Z,57.00
2018-10-19T17:33:15.424Z,52.67
2018-10-19T17:35:44.580Z,54.47
2018-10-19T17:38:13.108Z,52.03
2018-10-19T17:40:41.699Z,52.83
2018-10-19T17:43:10.274Z,54.20
2018-10-19T17:45:38.805Z,54.17
2018-10-19T17:48:07.304Z,57.57
2018-10-19T17:50:35.883Z,57.90
2018-10-19T17:53:05.431Z,54.60
2018-10-19T17:55:34.947Z,52.40
2018-10-19T17:58:03.505Z,52.87
2018-10-19T18:00:32.821Z,53.43
2018-10-19T18:03:01.553Z,53.00
2018-10-19T18:05:30.152Z,62.13
2018-10-19T18:07:59.589Z,65.00
2018-10-19T18:10:28.267Z,56.67
2018-10-19T18:12:56.758Z,53.47
2018-10-19T18:15:25.566Z,56.03
2018-10-19T18:17:56.654Z,55.00
2018-10-19T18:20:25.381Z,57.73
2018-10-19T18:22:54.070Z,56.10
2018-10-19T18:25:22.608Z,52.73
2018-10-19T18:27:51.229Z,52.67
2018-10-19T18:30:19.957Z,56.60
2018-10-19T18:32:50.539Z,55.40
2018-10-19T18:35:21.018Z,51.10
2018-10-19T18:37:51.540Z,53.37
2018-10-19T18:40:21.741Z,52.50
2018-10-19T18:42:53.302Z,53.30
2018-10-19T18:45:23.451Z,53.93
2018-10-19T18:47:55.534Z,52.97
2018-10-19T18:50:26.400Z,53.07
2018-10-19T18:52:56.747Z,52.40
2018-10-19T18:55:26.977Z,52.20
2018-10-19T18:57:57.587Z,50.63
2018-10-19T19:00:29.297Z,51.90
2018-10-19T19:03:01.085Z,53.50
2018-10-19T19:05:31.435Z,52.70
2018-10-19T19:08:02.465Z,54.50
2018-10-19T19:10:31.980Z,53.63
2018-10-19T19:13:06.812Z,54.50
2018-10-19T19:15:37.751Z,53.60
2018-10-19T19:18:08.421Z,53.73
2018-10-19T19:20:38.931Z,52.70
2018-10-19T19:23:11.460Z,55.17
2018-10-19T19:25:46.847Z,56.58
2018-10-19T19:28:17.577Z,55.07
2018-10-19T19:30:49.963Z,54.33
2018-10-19T19:33:26.314Z,54.23
2018-10-19T19:35:56.280Z,54.70
2018-10-19T19:38:27.515Z,56.73
2018-10-19T19:41:03.176Z,53.87
2018-10-19T19:43:34.088Z,55.00
2018-10-19T19:46:07.006Z,54.90
2018-10-19T19:48:42.145Z,54.40
2018-10-19T19:51:12.646Z,54.10
2018-10-19T19:53:43.524Z,53.97
2018-10-19T19:56:14.413Z,53.17
2018-10-19T19:58:46.479Z,53.73
2018-10-19T20:01:18.603Z,54.97
2018-10-19T20:03:49.926Z,54.43
2018-10-19T20:06:20.620Z,52.43
2018-10-19T20:08:51.801Z,55.20
2018-10-19T20:11:23.631Z,55.40
2018-10-19T20:13:54.919Z,54.53
2018-10-19T20:16:25.793Z,55.10
2018-10-19T20:18:56.119Z,53.90
2018-10-19T20:21:27.064Z,53.73
2018-10-19T20:23:58.192Z,54.70
2018-10-19T20:26:28.873Z,56.60
2018-10-19T20:28:59.630Z,53.03
2018-10-19T20:31:29.852Z,53.77
2018-10-19T20:33:58.927Z,53.90
2018-10-19T20:36:29.405Z,54.03
2018-10-19T20:39:00.364Z,53.17
2018-10-19T20:41:30.638Z,51.40
2018-10-19T20:44:00.999Z,54.43
2018-10-19T20:46:32.521Z,51.83
2018-10-19T20:49:03.344Z,54.23
2018-10-19T20:51:34.333Z,51.30
2018-10-19T20:54:05.616Z,53.93
2018-10-19T20:56:35.079Z,52.50
2018-10-19T20:59:05.232Z,54.37
2018-10-19T21:01:36.409Z,52.70
2018-10-19T21:04:08.521Z,53.57
2018-10-19T21:06:39.471Z,51.77
2018-10-19T21:09:11.089Z,53.30
2018-10-19T21:11:43.092Z,53.03
2018-10-19T21:14:13.593Z,50.63
2018-10-19T21:16:45.371Z,52.80
2018-10-19T21:19:15.711Z,53.27
2018-10-19T21:21:46.335Z,54.33
2018-10-19T21:24:17.262Z,53.53
2018-10-19T21:26:48.313Z,51.80
2018-10-19T21:29:17.728Z,54.70
2018-10-19T21:31:48.328Z,52.27
2018-10-19T21:34:19.155Z,53.10
2018-10-19T21:36:50.530Z,51.80
2018-10-19T21:39:20.894Z,50.97
2018-10-19T21:41:51.047Z,52.70
2018-10-19T21:44:22.113Z,51.00
2018-10-19T21:46:53.511Z,53.50
2018-10-19T21:49:24.277Z,51.37
2018-10-19T21:51:55.393Z,50.00
2018-10-19T21:54:27.194Z,50.33
2018-10-19T21:56:59.000Z,48.07
2018-10-19T21:59:29.383Z,51.50
2018-10-19T22:02:01.305Z,50.00
2018-10-19T22:04:31.500Z,49.87
2018-10-19T22:07:03.700Z,49.67
2018-10-19T22:09:34.058Z,48.20
2018-10-19T22:12:04.479Z,50.53
2018-10-19T22:14:34.649Z,51.20
2018-10-19T22:17:07.036Z,51.17
2018-10-19T22:19:39.345Z,51.23
2018-10-19T22:22:08.987Z,50.10
2018-10-19T22:24:38.164Z,49.83
2018-10-19T22:27:13.693Z,52.27
2018-10-19T22:29:45.149Z,50.20
2018-10-19T22:32:16.952Z,51.53
2018-10-19T22:34:47.160Z,49.10
2018-10-19T22:37:17.275Z,49.50
2018-10-19T22:39:47.958Z,50.07
2018-10-19T22:42:18.310Z,51.30
2018-10-19T22:44:50.604Z,51.20
2018-10-19T22:47:21.978Z,51.57
2018-10-19T22:49:57.284Z,52.07
2018-10-19T22:52:29.318Z,49.67
2018-10-19T22:55:00.155Z,47.43
2018-10-19T22:57:33.179Z,50.30
2018-10-19T23:00:05.013Z,50.40
2018-10-19T23:02:35.257Z,49.47
2018-10-19T23:05:07.021Z,54.17
2018-10-19T23:07:37.335Z,52.17
2018-10-19T23:10:09.194Z,51.40
2018-10-19T23:12:42.766Z,51.80
2018-10-19T23:15:14.174Z,51.30
2018-10-19T23:17:44.854Z,48.73
2018-10-19T23:20:16.514Z,48.60
2018-10-19T23:22:48.771Z,48.13
2018-10-19T23:25:20.538Z,46.73
2018-10-19T23:27:51.467Z,48.13
2018-10-19T23:30:22.463Z,50.03
2018-10-19T23:32:53.012Z,47.90
2018-10-19T23:35:23.376Z,47.73
2018-10-19T23:37:53.678Z,48.97
2018-10-19T23:40:24.607Z,49.50
2018-10-19T23:42:57.099Z,48.33
2018-10-19T23:45:28.754Z,49.73
2018-10-19T23:47:59.643Z,49.90
2018-10-19T23:50:30.371Z,47.20
2018-10-19T23:53:03.240Z,48.40
2018-10-19T23:55:32.043Z,48.40
2018-10-19T23:58:01.544Z,51.87
